Time;durP1;ratioP1;P1;durP2;ratioP2;P2;SDS_P1;SDS_P2;PMS_P1;PMS_P2;Temp;Humidity;BMP_temperature;BMP_pressure;BME280_temperature;BME280_humidity;BME280_pressure;Samples;Min_cycle;Max_cycle;Signal;HPM_P1;HPM_P2
2021/11/24 00:02:11;;;;;;;106.28;29.95;;;7.70;99.90;;;5.61;100.00;101729.16;5007649;28;20073;-86
2021/11/24 00:04:39;;;;;;;82.22;27.52;;;7.70;99.90;;;5.63;100.00;101729.88;5006883;28;20041;-86
2021/11/24 00:07:06;;;;;;;86.47;27.70;;;7.70;99.90;;;5.65;100.00;101725.22;5005679;28;20177;-87
2021/11/24 00:09:34;;;;;;;81.97;27.45;;;7.70;99.90;;;5.68;100.00;101722.28;5005446;28;20050;-86
2021/11/24 00:12:03;;;;;;;93.40;29.23;;;7.70;99.90;;;5.66;100.00;101714.31;5005878;28;20088;-87
2021/11/24 00:14:31;;;;;;;85.20;28.83;;;7.70;99.90;;;5.65;100.00;101718.00;4993006;28;20049;-87
2021/11/24 00:16:58;;;;;;;84.10;28.80;;;7.70;99.90;;;5.63;100.00;101716.38;4985720;28;20066;-86
2021/11/24 00:19:27;;;;;;;92.13;28.33;;;7.70;99.90;;;5.65;100.00;101711.72;5002678;28;20739;-85
2021/11/24 00:21:54;;;;;;;101.55;29.70;;;7.70;99.90;;;5.63;100.00;101713.69;5002314;28;20054;-86
2021/11/24 00:24:22;;;;;;;84.45;28.55;;;7.70;99.90;;;5.65;100.00;101711.72;4986929;28;20532;-86
2021/11/24 00:26:49;;;;;;;97.30;29.45;;;7.70;99.90;;;5.64;100.00;101704.63;4987387;28;20133;-86
2021/11/24 00:29:17;;;;;;;90.13;28.23;;;7.70;99.90;;;5.62;100.00;101707.44;4985968;28;20062;-86
2021/11/24 00:31:44;;;;;;;82.28;27.42;;;7.70;99.90;;;5.65;100.00;101703.63;4985789;28;20925;-86
2021/11/24 00:34:12;;;;;;;83.05;27.48;;;7.70;99.90;;;5.68;100.00;101701.53;4986797;28;20149;-86
2021/11/24 00:36:40;;;;;;;76.03;26.58;;;7.70;99.90;;;5.65;100.00;101703.63;4985740;28;20054;-87
2021/11/24 00:39:07;;;;;;;79.15;27.15;;;7.70;99.90;;;5.65;100.00;101704.50;4985786;28;20144;-86
2021/11/24 00:41:35;;;;;;;91.93;28.83;;;7.70;99.90;;;5.66;100.00;101708.03;4985693;28;20648;-87
2021/11/24 00:44:02;;;;;;;85.82;27.00;;;7.70;99.90;;;5.68;100.00;101697.97;4986893;28;20050;-86
2021/11/24 00:46:29;;;;;;;92.05;28.05;;;7.70;99.90;;;5.68;100.00;101698.81;4985561;28;20147;-86
2021/11/24 00:48:57;;;;;;;96.65;29.23;;;7.70;99.90;;;5.70;100.00;101704.13;4985189;28;21031;-86
2021/11/24 00:51:24;;;;;;;107.75;32.83;;;7.70;99.90;;;5.72;100.00;101695.91;5001991;28;21031;-86
2021/11/24 00:53:53;;;;;;;87.40;29.83;;;7.70;99.90;;;5.71;100.00;101697.72;4986714;28;20046;-86
2021/11/24 00:56:20;;;;;;;87.30;27.48;;;7.70;99.90;;;5.68;100.00;101692.56;5001416;28;20094;-86
2021/11/24 00:58:48;;;;;;;88.97;27.65;;;7.80;99.90;;;5.70;100.00;101698.72;4985594;28;20116;-86
2021/11/24 01:01:15;;;;;;;90.15;27.67;;;7.80;99.90;;;5.67;100.00;101693.53;4985451;28;20066;-87
2021/11/24 01:03:42;;;;;;;83.50;27.63;;;7.80;99.90;;;5.67;100.00;101698.94;4985231;28;20400;-86
2021/11/24 01:06:10;;;;;;;87.80;27.05;;;7.80;99.90;;;5.69;100.00;101691.56;4985076;28;20050;-86
2021/11/24 01:08:37;;;;;;;85.43;27.75;;;7.80;99.90;;;5.71;100.00;101694.16;5002611;28;20058;-87
2021/11/24 01:11:06;;;;;;;81.68;27.33;;;7.80;99.90;;;5.68;100.00;101690.72;4986526;28;20104;-86
2021/11/24 01:13:34;;;;;;;94.55;28.40;;;7.80;99.90;;;5.72;100.00;101685.09;5001511;28;20092;-86
2021/11/24 01:16:01;;;;;;;95.40;29.02;;;7.80;99.90;;;5.71;100.00;101676.09;5001025;28;20117;-87
2021/11/24 01:18:28;;;;;;;80.40;26.98;;;7.80;99.90;;;5.72;100.00;101679.69;5001568;28;20078;-86
2021/11/24 01:20:56;;;;;;;89.95;27.27;;;7.80;99.90;;;5.69;100.00;101680.78;4986474;28;20396;-86
2021/11/24 01:23:23;;;;;;;81.32;26.95;;;7.80;99.90;;;5.68;100.00;101676.38;4986453;28;20066;-86
2021/11/24 01:25:51;;;;;;;88.82;28.02;;;7.80;99.90;;;5.71;100.00;101681.50;5000788;28;20113;-86
2021/11/24 01:28:20;;;;;;;91.68;26.67;;;7.80;99.90;;;5.70;100.00;101685.22;5001570;28;20052;-86
2021/11/24 01:30:48;;;;;;;91.35;26.50;;;7.80;99.90;;;5.73;100.00;101678.69;4984813;28;20089;-86
2021/11/24 01:33:16;;;;;;;88.32;27.25;;;7.70;99.90;;;5.74;100.00;101681.28;5001073;28;20054;-86
2021/11/24 01:35:43;;;;;;;97.47;28.70;;;7.80;99.90;;;5.74;100.00;101677.72;4987564;28;20155;-86
2021/11/24 01:38:11;;;;;;;96.00;28.38;;;7.80;99.90;;;5.76;100.00;101676.59;4985744;28;20061;-86
2021/11/24 01:40:38;;;;;;;88.90;27.23;;;7.80;99.90;;;5.76;100.00;101671.19;4984540;28;20065;-87
2021/11/24 01:43:08;;;;;;;123.25;31.50;;;7.80;99.90;;;5.75;100.00;101666.78;4984376;28;20042;-87
2021/11/24 01:45:38;;;;;;;99.82;29.85;;;7.80;99.90;;;5.74;100.00;101672.31;4984250;28;20097;-86
2021/11/24 01:48:06;;;;;;;136.45;31.23;;;7.80;99.90;;;5.76;100.00;101671.19;4985018;28;20050;-87
2021/11/24 01:50:34;;;;;;;98.97;28.52;;;7.80;99.90;;;5.75;100.00;101669.50;4984484;28;20043;-86
2021/11/24 01:53:03;;;;;;;127.40;31.25;;;7.80;99.90;;;5.74;100.00;101669.63;4984438;28;20455;-86
2021/11/24 01:55:30;;;;;;;106.10;31.05;;;7.80;99.90;;;5.74;100.00;101673.16;4984147;28;20157;-86
2021/11/24 01:57:58;;;;;;;103.85;28.95;;;7.80;99.90;;;5.74;100.00;101675.03;4984164;28;20483;-86
2021/11/24 02:00:30;;;;;;;111.07;30.70;;;7.80;99.90;;;5.76;100.00;101664.94;4984282;28;20057;-86
2021/11/24 02:03:02;;;;;;;99.80;29.95;;;7.80;99.90;;;5.74;100.00;101662.38;4984012;28;20819;-86
2021/11/24 02:05:29;;;;;;;118.65;30.27;;;7.80;99.90;;;5.76;100.00;101660.38;4983633;28;20046;-86
2021/11/24 02:07:57;;;;;;;104.95;29.88;;;7.80;99.90;;;5.75;100.00;101661.41;4984219;28;20590;-86
2021/11/24 02:10:25;;;;;;;132.57;31.73;;;7.80;99.90;;;5.73;100.00;101655.25;4984484;28;20050;-87
2021/11/24 02:12:53;;;;;;;117.20;31.00;;;7.80;99.90;;;5.74;100.00;101646.16;4984087;28;20043;-86
2021/11/24 02:15:22;;;;;;;128.30;31.60;;;7.80;99.90;;;5.73;100.00;101644.47;4985385;28;20050;-87
2021/11/24 02:17:49;;;;;;;121.60;31.52;;;7.80;99.90;;;5.69;100.00;101648.38;4985531;28;20499;-87
2021/11/24 02:20:19;;;;;;;112.82;31.65;;;7.80;99.90;;;5.73;100.00;101639.06;4985842;28;20042;-86
2021/11/24 02:22:46;;;;;;;135.10;31.98;;;7.80;99.90;;;5.76;100.00;101630.69;4986121;28;20050;-86
2021/11/24 02:25:13;;;;;;;117.82;31.13;;;7.80;99.90;;;5.80;100.00;101628.59;4985061;28;20039;-86
2021/11/24 02:27:41;;;;;;;108.32;28.73;;;7.80;99.90;;;5.75;100.00;101626.28;4984087;28;20050;-87
2021/11/24 02:30:09;;;;;;;112.28;32.00;;;7.80;99.90;;;5.75;100.00;101615.47;4984383;28;20080;-87
2021/11/24 02:32:36;;;;;;;135.05;31.25;;;7.80;99.90;;;5.75;100.00;101620.88;4985507;28;20046;-87
2021/11/24 02:35:04;;;;;;;124.95;31.55;;;7.80;99.90;;;5.79;100.00;101621.50;4984613;28;20085;-86
2021/11/24 02:37:33;;;;;;;101.53;29.38;;;7.80;99.90;;;5.77;100.00;101616.22;4983609;28;20051;-86
2021/11/24 02:40:00;;;;;;;105.65;29.63;;;7.80;99.90;;;5.76;100.00;101617.19;4985529;28;20039;-86
2021/11/24 02:42:27;;;;;;;109.25;31.50;;;7.80;99.90;;;5.79;100.00;101618.78;4983956;28;20104;-87
2021/11/24 02:44:55;;;;;;;106.82;29.33;;;7.80;99.90;;;5.83;100.00;101618.41;4983588;28;20057;-86
2021/11/24 02:47:25;;;;;;;112.35;31.52;;;7.80;99.90;;;5.81;100.00;101608.72;4985131;28;20038;-86
2021/11/24 02:49:55;;;;;;;118.10;30.95;;;7.80;99.90;;;5.76;100.00;101605.53;4986745;28;20046;-87
2021/11/24 02:52:24;;;;;;;103.80;30.08;;;7.80;99.90;;;5.79;100.00;101613.38;4988146;28;20455;-85
2021/11/24 02:54:56;;;;;;;103.70;29.08;;;7.80;99.90;;;5.80;100.00;101607.81;4987539;28;20733;-86
2021/11/24 02:57:32;;;;;;;107.32;31.02;;;7.80;99.90;;;5.81;100.00;101603.31;4987793;28;20078;-86
2021/11/24 02:59:59;;;;;;;108.03;31.17;;;7.80;99.90;;;5.79;100.00;101599.88;4988275;28;20462;-86
2021/11/24 03:02:27;;;;;;;118.40;31.02;;;7.80;99.90;;;5.80;100.00;101599.72;4987998;28;20116;-86
2021/11/24 03:04:55;;;;;;;103.63;29.13;;;7.80;99.90;;;5.79;100.00;101589.94;4988998;28;20067;-86
2021/11/24 03:07:23;;;;;;;110.93;29.92;;;7.80;99.90;;;5.81;100.00;101593.34;4987622;28;20046;-86
2021/11/24 03:09:52;;;;;;;152.18;32.30;;;7.80;99.90;;;5.85;100.00;101593.97;4988551;28;20161;-86
2021/11/24 03:12:20;;;;;;;97.28;28.55;;;7.80;99.90;;;5.86;100.00;101590.25;4987669;28;20054;-86
2021/11/24 03:14:47;;;;;;;147.85;32.97;;;7.90;99.90;;;5.86;100.00;101584.84;4986644;28;20582;-86
2021/11/24 03:17:15;;;;;;;121.35;31.10;;;7.90;99.90;;;5.86;100.00;101566.81;4987369;28;20054;-86
2021/11/24 03:19:44;;;;;;;110.05;31.23;;;7.90;99.90;;;5.88;100.00;101572.97;4987262;28;20054;-86
2021/11/24 03:22:12;;;;;;;109.25;30.50;;;7.90;99.90;;;5.85;100.00;101578.59;4988881;28;20153;-87
2021/11/24 03:24:39;;;;;;;101.22;28.77;;;7.90;99.90;;;5.86;100.00;101564.13;4986815;28;20068;-86
2021/11/24 03:27:08;;;;;;;114.10;29.77;;;7.90;99.90;;;5.85;100.00;101566.94;4987203;28;20053;-86
2021/11/24 03:29:35;;;;;;;116.15;30.33;;;7.90;99.90;;;5.85;100.00;101561.53;4989082;28;20046;-86
2021/11/24 03:32:03;;;;;;;120.97;30.42;;;7.90;99.90;;;5.81;100.00;101555.53;4987054;28;20680;-87
2021/11/24 03:34:30;;;;;;;112.00;29.15;;;7.90;99.90;;;5.84;100.00;101555.25;5004259;28;20756;-87
2021/11/24 03:36:58;;;;;;;121.57;29.13;;;7.90;99.90;;;5.84;100.00;101555.25;4987183;28;20124;-86
2021/11/24 03:39:25;;;;;;;117.25;28.42;;;7.90;99.90;;;5.84;100.00;101543.59;4986757;28;20058;-87
2021/11/24 03:41:52;;;;;;;126.13;30.80;;;7.90;99.90;;;5.88;100.00;101540.53;4986739;28;20590;-86
2021/11/24 03:44:21;;;;;;;109.53;29.63;;;7.90;99.90;;;5.88;100.00;101540.53;4986280;28;20053;-86
2021/11/24 03:46:48;;;;;;;109.60;29.67;;;7.90;99.90;;;5.88;100.00;101535.13;4988286;28;20177;-86
2021/11/24 03:49:15;;;;;;;121.18;32.35;;;7.90;99.90;;;5.84;100.00;101524.69;4986758;28;20460;-86
2021/11/24 03:51:43;;;;;;;124.28;31.10;;;7.90;99.90;;;5.88;100.00;101529.72;4987104;28;20054;-87
2021/11/24 03:54:10;;;;;;;142.32;33.47;;;7.90;99.90;;;5.90;100.00;101531.44;4986244;28;20050;-86
2021/11/24 03:56:38;;;;;;;134.02;32.20;;;7.90;99.90;;;5.87;100.00;101528.00;4986524;28;20463;-86
2021/11/24 03:59:05;;;;;;;116.47;31.30;;;7.90;99.90;;;5.88;100.00;101528.84;4986612;28;20686;-87
2021/11/24 04:01:34;;;;;;;152.27;34.05;;;7.90;99.90;;;5.86;100.00;101526.31;4986221;28;20570;-87
2021/11/24 04:04:01;;;;;;;128.23;33.28;;;7.90;99.90;;;5.87;100.00;101524.44;4987943;28;20661;-87
2021/11/24 04:06:29;;;;;;;144.68;32.80;;;7.90;99.90;;;5.87;100.00;101525.31;4986209;28;20467;-85
2021/11/24 04:08:56;;;;;;;151.13;33.83;;;7.90;99.90;;;5.85;100.00;101519.16;4986336;28;20105;-87
2021/11/24 04:11:24;;;;;;;134.10;31.67;;;7.90;99.90;;;5.87;100.00;101513.66;4985910;28;20065;-86
2021/11/24 04:13:51;;;;;;;137.55;31.52;;;7.90;99.90;;;5.87;100.00;101519.91;4986358;28;20147;-86
2021/11/24 04:16:19;;;;;;;125.15;30.73;;;7.90;99.90;;;5.88;100.00;101508.13;4986002;28;20113;-86
2021/11/24 04:18:48;;;;;;;127.55;32.67;;;7.90;99.90;;;5.87;100.00;101511.78;4987799;28;20046;-87
2021/11/24 04:21:15;;;;;;;168.13;33.75;;;7.90;99.90;;;5.86;100.00;101503.81;4986264;28;20076;-86
2021/11/24 04:23:43;;;;;;;130.07;30.85;;;7.90;99.90;;;5.85;100.00;101502.97;4986214;28;20047;-86
2021/11/24 04:26:10;;;;;;;162.18;32.80;;;7.90;99.90;;;5.87;100.00;101500.97;4987224;28;20645;-87
2021/11/24 04:28:38;;;;;;;205.13;34.10;;;7.90;99.90;;;5.87;100.00;101500.97;4986033;28;20071;-86
2021/11/24 04:31:06;;;;;;;125.28;31.55;;;7.90;99.90;;;5.92;100.00;101499.72;4986253;28;20061;-87
2021/11/24 04:33:34;;;;;;;127.50;30.67;;;7.90;99.90;;;5.88;100.00;101502.72;4985826;28;20057;-87
2021/11/24 04:36:04;;;;;;;145.88;32.20;;;7.90;99.90;;;5.94;100.00;101501.34;4985591;28;20050;-86
2021/11/24 04:38:31;;;;;;;143.82;31.85;;;7.90;99.90;;;5.90;100.00;101493.59;4987255;28;20034;-87
2021/11/24 04:40:59;;;;;;;132.98;31.05;;;7.90;99.90;;;5.91;100.00;101489.94;4985768;28;20058;-87
2021/11/24 04:43:31;;;;;;;167.93;33.90;;;7.90;99.90;;;5.88;100.00;101489.22;4985734;28;20043;-87
2021/11/24 04:46:00;;;;;;;125.68;28.45;;;7.90;99.90;;;5.93;100.00;101496.91;4985352;28;20056;-86
2021/11/24 04:48:28;;;;;;;120.35;30.65;;;7.90;99.90;;;5.94;100.00;101495.06;4985474;28;20078;-86
2021/11/24 04:50:55;;;;;;;158.18;33.08;;;7.90;99.90;;;5.96;100.00;101493.09;4986899;28;20122;-87
2021/11/24 04:53:24;;;;;;;133.80;32.60;;;8.00;99.90;;;5.97;100.00;101492.13;4985487;28;20814;-86
2021/11/24 04:55:52;;;;;;;137.68;31.55;;;8.00;99.90;;;5.93;100.00;101485.25;4985150;28;20050;-86
2021/11/24 04:58:19;;;;;;;150.93;31.33;;;8.00;99.90;;;5.91;100.00;101490.78;4985371;28;20055;-86
2021/11/24 05:00:46;;;;;;;135.68;30.67;;;8.00;99.90;;;5.92;100.00;101484.41;4985310;28;20054;-87
2021/11/24 05:03:14;;;;;;;143.57;31.75;;;8.00;99.90;;;5.95;100.00;101469.75;4985449;28;20069;-86
2021/11/24 05:05:41;;;;;;;120.90;29.85;;;8.00;99.90;;;5.95;100.00;101475.16;5001282;28;20566;-86
2021/11/24 05:08:09;;;;;;;115.35;29.70;;;8.00;99.90;;;5.91;100.00;101473.72;4986701;28;20109;-87
2021/11/24 05:10:37;;;;;;;151.27;31.77;;;8.00;99.90;;;5.94;100.00;101471.63;4986849;28;20046;-87
2021/11/24 05:13:06;;;;;;;176.18;32.22;;;8.00;99.90;;;5.99;100.00;101471.25;4985677;28;20100;-85
2021/11/24 05:15:36;;;;;;;125.78;29.02;;;8.00;99.90;;;5.96;100.00;101474.19;4986051;28;20380;-86
2021/11/24 05:18:05;;;;;;;128.65;29.88;;;8.00;99.90;;;5.92;100.00;101476.28;4986532;28;20828;-86
2021/11/24 05:20:34;;;;;;;137.40;30.08;;;8.00;99.90;;;5.93;100.00;101469.88;5001940;28;20065;-87
2021/11/24 05:23:04;;;;;;;122.88;28.63;;;8.00;99.90;;;5.90;100.00;101477.41;5001035;28;20516;-86
2021/11/24 05:25:33;;;;;;;168.23;32.50;;;7.90;99.90;;;5.88;100.00;101475.69;5001284;28;20046;-86
2021/11/24 05:28:02;;;;;;;130.48;29.67;;;8.00;99.90;;;5.86;100.00;101476.78;4986269;28;20931;-90
2021/11/24 05:30:30;;;;;;;136.15;31.17;;;8.00;99.90;;;5.84;100.00;101482.31;5001839;28;20100;-89
2021/11/24 05:32:57;;;;;;;246.90;33.97;;;7.90;99.90;;;5.88;100.00;101473.00;4986673;28;20105;-89
2021/11/24 05:35:26;;;;;;;163.73;32.22;;;8.00;99.90;;;5.90;100.00;101472.00;4987709;28;20523;-91
2021/11/24 05:37:54;;;;;;;206.43;34.92;;;8.00;99.90;;;5.93;100.00;101482.56;4988475;28;20046;-90
2021/11/24 05:40:21;;;;;;;143.50;30.27;;;8.00;99.90;;;5.97;100.00;101470.53;4989147;28;20051;-91
2021/11/24 05:42:49;;;;;;;173.43;33.88;;;8.00;99.90;;;5.98;100.00;101469.53;4986189;28;20061;-90
2021/11/24 05:45:27;;;;;;;197.60;37.50;;;8.00;99.90;;;5.97;100.00;101463.25;4984299;28;20050;-89
2021/11/24 05:47:58;;;;;;;193.60;34.85;;;8.00;99.90;;;5.96;100.00;101456.16;4984681;28;20065;-90
2021/11/24 05:50:27;;;;;;;170.63;32.77;;;8.00;99.90;;;6.01;100.00;101463.88;4986370;28;20054;-90
2021/11/24 05:52:55;;;;;;;162.43;35.67;;;8.00;99.90;;;5.97;100.00;101451.59;4985962;28;20249;-89
2021/11/24 05:55:25;;;;;;;165.45;33.05;;;8.00;99.90;;;6.02;100.00;101455.63;4985510;28;20124;-89
2021/11/24 05:57:52;;;;;;;308.13;38.03;;;8.00;99.90;;;6.03;100.00;101451.91;4984399;28;20046;-90
2021/11/24 06:00:21;;;;;;;157.25;32.63;;;8.00;99.90;;;6.00;100.00;101456.75;4985843;28;20098;-90
2021/11/24 06:02:51;;;;;;;140.23;31.85;;;8.00;99.90;;;6.03;100.00;101454.63;4984279;28;20783;-90
2021/11/24 06:05:18;;;;;;;203.88;33.05;;;8.00;99.90;;;6.05;100.00;101454.50;4983944;28;20062;-91
2021/11/24 06:07:46;;;;;;;179.15;33.42;;;8.00;99.90;;;6.03;100.00;101449.22;4984588;28;20096;-90
2021/11/24 06:10:14;;;;;;;172.48;33.42;;;8.00;99.90;;;6.03;100.00;101440.25;4984463;28;20050;-90
2021/11/24 06:12:41;;;;;;;204.82;34.70;;;8.10;99.90;;;6.03;100.00;101449.22;4984354;28;20520;-90
2021/11/24 06:15:15;;;;;;;159.15;32.83;;;8.00;99.90;;;6.01;100.00;101437.69;4985715;28;20152;-91
2021/11/24 06:17:44;;;;;;;146.57;31.95;;;8.00;99.90;;;6.03;100.00;101435.72;4984452;28;20142;-90
2021/11/24 06:20:13;;;;;;;155.75;34.28;;;8.10;99.90;;;6.02;100.00;101434.00;4984324;28;20077;-90
2021/11/24 06:22:43;;;;;;;187.48;34.45;;;8.00;99.90;;;6.04;100.00;101442.84;4983708;28;20801;-91
2021/11/24 06:25:14;;;;;;;204.57;36.88;;;8.10;99.90;;;6.02;100.00;101434.00;4983657;28;20050;-90
2021/11/24 06:27:42;;;;;;;282.70;37.38;;;8.10;99.90;;;6.04;100.00;101431.19;4983901;28;20053;-89
2021/11/24 06:30:17;;;;;;;516.60;45.70;;;8.10;99.90;;;6.06;100.00;101435.47;4984173;28;20061;-90
2021/11/24 06:32:48;;;;;;;269.05;35.72;;;8.10;99.90;;;6.07;100.00;101430.91;4983820;28;20523;-91
2021/11/24 06:35:16;;;;;;;143.18;33.22;;;8.10;99.90;;;6.08;100.00;101438.03;4984114;28;20899;-90
2021/11/24 06:37:43;;;;;;;204.65;35.13;;;8.10;99.90;;;6.09;100.00;101434.31;4984451;28;20050;-88
2021/11/24 06:40:13;;;;;;;277.08;37.13;;;8.10;99.90;;;6.11;100.00;101429.66;4984614;28;20496;-89
2021/11/24 06:42:43;;;;;;;139.05;33.05;;;8.10;99.90;;;6.10;100.00;101430.66;4984422;28;20050;-90
2021/11/24 06:45:13;;;;;;;169.80;32.50;;;8.10;99.90;;;6.09;100.00;101428.91;4986292;28;20116;-89
2021/11/24 06:47:41;;;;;;;135.48;32.90;;;8.10;99.90;;;6.12;100.00;101428.66;4984399;28;20054;-89
2021/11/24 06:50:13;;;;;;;128.43;29.95;;;8.10;99.90;;;6.12;100.00;101427.81;4984385;28;20061;-89
2021/11/24 06:52:42;;;;;;;219.95;35.40;;;8.10;99.90;;;6.11;100.00;101428.78;4989362;28;20054;-89
2021/11/24 06:55:11;;;;;;;157.23;30.95;;;8.10;99.90;;;6.10;100.00;101430.66;4994407;28;20128;-89
2021/11/24 06:57:39;;;;;;;131.90;30.38;;;8.10;99.90;;;6.11;100.00;101431.50;4984300;28;20527;-87
2021/11/24 07:00:08;;;;;;;131.43;30.92;;;8.10;99.90;;;6.13;100.00;101430.41;4981697;28;20125;-90
2021/11/24 07:02:36;;;;;;;203.68;32.70;;;8.10;99.90;;;6.10;100.00;101433.34;4982928;28;20515;-89
2021/11/24 07:05:09;;;;;;;130.80;30.25;;;8.10;99.90;;;6.13;100.00;101430.41;4983538;28;20709;-89
2021/11/24 07:07:37;;;;;;;155.57;30.80;;;8.10;99.90;;;6.09;100.00;101420.81;4984268;28;20619;-89
2021/11/24 07:10:06;;;;;;;320.92;38.17;;;8.10;99.90;;;6.10;100.00;101419.84;4985490;28;20050;-88
2021/11/24 07:12:34;;;;;;;264.15;35.08;;;8.10;99.90;;;6.04;100.00;101421.22;4980848;28;20069;-90
2021/11/24 07:15:01;;;;;;;162.00;30.33;;;8.10;99.90;;;6.09;100.00;101428.06;4987513;28;20121;-89
2021/11/24 07:17:29;;;;;;;213.10;31.42;;;8.10;99.90;;;6.07;100.00;101420.09;5000375;28;20058;-90
2021/11/24 07:19:56;;;;;;;195.48;31.45;;;8.10;99.90;;;6.02;100.00;101423.22;4999913;28;20074;-88
2021/11/24 07:22:24;;;;;;;218.88;32.35;;;8.10;99.90;;;6.03;100.00;101424.06;4999566;28;20416;-87
2021/11/24 07:24:53;;;;;;;209.98;34.08;;;8.10;99.90;;;6.01;100.00;101426.03;4983950;28;20052;-88
2021/11/24 07:27:20;;;;;;;161.55;30.90;;;8.10;99.90;;;6.02;100.00;101428.59;4992062;28;20050;-87
2021/11/24 07:29:48;;;;;;;326.70;35.78;;;8.10;99.90;;;6.03;100.00;101434.88;5003768;28;20089;-87
2021/11/24 07:32:15;;;;;;;288.30;37.28;;;8.10;99.90;;;6.10;100.00;101429.78;4987557;28;20161;-87
2021/11/24 07:34:43;;;;;;;168.48;30.45;;;8.10;99.90;;;6.09;100.00;101428.91;4983429;28;20138;-87
2021/11/24 07:37:13;;;;;;;190.15;33.20;;;8.10;99.90;;;6.09;100.00;101419.97;4988259;28;20050;-87
2021/11/24 07:39:41;;;;;;;257.35;35.22;;;8.10;99.90;;;6.09;100.00;101423.50;4988078;28;20632;-86
2021/11/24 07:42:13;;;;;;;149.02;30.83;;;8.10;99.90;;;6.08;100.00;101416.41;4987815;28;20125;-87
2021/11/24 07:44:40;;;;;;;151.30;29.02;;;8.10;99.90;;;6.13;100.00;101433.09;5004131;28;20101;-87
2021/11/24 07:47:08;;;;;;;295.67;33.00;;;8.10;99.90;;;6.14;100.00;101433.94;5018327;28;20465;-87
2021/11/24 07:49:35;;;;;;;303.08;34.58;;;8.20;99.90;;;6.12;100.00;101425.97;5002591;28;20046;-87
2021/11/24 07:52:03;;;;;;;126.55;28.90;;;8.10;99.90;;;6.11;100.00;101426.97;4995659;28;20069;-86
2021/11/24 07:54:30;;;;;;;167.98;29.75;;;8.20;99.90;;;6.10;100.00;101425.25;5006486;28;20072;-87
2021/11/24 07:56:57;;;;;;;257.58;35.03;;;8.20;99.90;;;6.11;100.00;101424.25;5007008;28;20514;-87
2021/11/24 07:59:26;;;;;;;156.13;32.15;;;8.10;99.90;;;6.15;100.00;101419.44;4991916;28;20046;-87
2021/11/24 08:01:54;;;;;;;163.80;32.33;;;8.20;99.90;;;6.17;100.00;101421.03;4986221;28;20104;-87
2021/11/24 08:04:21;;;;;;;171.55;32.95;;;8.20;99.90;;;6.20;100.00;101419.88;4981787;28;20128;-86
2021/11/24 08:06:49;;;;;;;184.90;30.92;;;8.20;99.90;;;6.17;100.00;101404.81;4985823;28;20057;-87
2021/11/24 08:09:16;;;;;;;129.68;30.08;;;8.20;99.90;;;6.20;100.00;101401.81;4986301;28;20050;-88
2021/11/24 08:11:44;;;;;;;155.35;30.73;;;8.20;99.90;;;6.19;100.00;101402.81;4984325;28;20045;-89
2021/11/24 08:14:11;;;;;;;177.05;32.53;;;8.20;99.90;;;6.16;100.00;101388.72;4985527;28;20060;-89
2021/11/24 08:16:40;;;;;;;198.98;31.85;;;8.20;99.90;;;6.21;100.00;101400.00;4986255;28;20042;-90
2021/11/24 08:19:07;;;;;;;152.80;32.53;;;8.20;99.90;;;6.25;100.00;101396.03;4986840;28;20797;-86
2021/11/24 08:21:35;;;;;;;127.50;31.20;;;8.20;99.90;;;6.24;100.00;101395.19;4977737;28;20101;-90
2021/11/24 08:24:03;;;;;;;194.52;36.67;;;8.20;99.90;;;6.31;100.00;101394.63;4976280;28;20050;-89
2021/11/24 08:26:31;;;;;;;131.50;32.85;;;8.10;99.90;;;6.38;100.00;101382.28;4987322;28;20047;-88
2021/11/24 08:28:58;;;;;;;133.57;31.77;;;8.00;99.90;;;6.42;100.00;101387.28;4986456;28;20057;-86
2021/11/24 08:31:25;;;;;;;132.77;31.73;;;8.10;99.90;;;6.46;100.00;101382.47;4985651;28;20042;-90
2021/11/24 08:33:54;;;;;;;129.65;32.47;;;8.10;99.90;;;6.46;100.00;101377.91;4986868;28;20050;-81
2021/11/24 08:36:22;;;;;;;135.98;31.83;;;8.20;99.90;;;6.46;100.00;101388.72;4986188;28;20057;-86
2021/11/24 08:38:49;;;;;;;108.35;29.52;;;8.20;99.90;;;6.50;100.00;101375.78;5002052;28;20054;-89
2021/11/24 08:41:16;;;;;;;121.13;31.13;;;8.20;99.90;;;6.49;100.00;101378.63;4982933;28;20840;-90
2021/11/24 08:43:44;;;;;;;101.93;28.13;;;8.30;99.90;;;6.50;100.00;101375.78;4985803;28;20441;-89
2021/11/24 08:46:11;;;;;;;101.32;29.35;;;8.30;99.90;;;6.54;100.00;101377.22;4992108;28;20060;-90
2021/11/24 08:48:39;;;;;;;89.13;26.45;;;8.30;99.90;;;6.55;100.00;101369.94;5005359;28;20422;-90
2021/11/24 08:51:08;;;;;;;78.53;25.02;;;8.40;99.90;;;6.58;100.00;101370.53;4984366;28;20058;-89
2021/11/24 08:53:35;;;;;;;74.53;24.00;;;8.40;99.90;;;6.55;100.00;101373.53;4980708;28;20046;-90
2021/11/24 08:56:03;;;;;;;80.03;24.65;;;8.40;99.90;;;6.55;100.00;101372.66;5006115;28;20095;-90
2021/11/24 08:58:30;;;;;;;95.80;29.38;;;8.40;99.90;;;6.55;100.00;101370.81;4990959;28;20105;-90
2021/11/24 09:00:58;;;;;;;106.10;28.92;;;8.40;99.90;;;6.59;100.00;101369.56;4985446;28;20121;-89
2021/11/24 09:03:25;;;;;;;118.97;30.35;;;8.40;99.90;;;6.60;100.00;101362.28;4987176;28;20104;-89
2021/11/24 09:05:53;;;;;;;109.72;31.13;;;8.40;99.90;;;6.61;100.00;101364.00;4985041;28;20420;-90
2021/11/24 09:08:21;;;;;;;108.15;28.92;;;8.30;99.90;;;6.60;100.00;101363.13;4990002;28;20053;-89
2021/11/24 09:10:49;;;;;;;99.72;30.27;;;8.50;99.90;;;6.64;100.00;101351.06;4988341;28;20049;-90
2021/11/24 09:13:16;;;;;;;116.10;31.30;;;8.50;99.90;;;6.68;100.00;101350.78;4988486;28;20621;-89
2021/11/24 09:15:45;;;;;;;107.72;29.73;;;8.50;99.90;;;6.73;100.00;101351.22;4988472;28;20069;-90
2021/11/24 09:18:13;;;;;;;95.95;28.83;;;8.50;99.90;;;6.70;100.00;101343.38;4977168;28;20050;-84
2021/11/24 09:20:41;;;;;;;103.80;28.25;;;8.50;99.90;;;6.76;100.00;101342.81;4995027;28;20606;-86
2021/11/24 09:23:14;;;;;;;95.05;26.42;;;8.50;99.90;;;6.80;100.00;101333.44;4976458;28;20042;-86
2021/11/24 09:25:49;;;;;;;102.00;27.02;;;8.50;99.90;;;6.79;100.00;101329.00;4978547;28;20120;-86
2021/11/24 09:28:18;;;;;;;87.35;27.63;;;8.50;99.90;;;6.83;100.00;101330.44;4988116;28;20469;-85
2021/11/24 09:30:46;;;;;;;96.15;27.33;;;8.60;99.90;;;6.79;100.00;101337.13;4984710;28;20057;-86
2021/11/24 09:33:14;;;;;;;97.45;29.23;;;8.60;99.90;;;6.82;100.00;101324.19;4970951;28;20050;-85
2021/11/24 09:35:41;;;;;;;100.97;29.33;;;8.60;99.90;;;6.87;100.00;101318.34;4993985;28;20054;-86
2021/11/24 09:38:13;;;;;;;92.03;28.45;;;8.60;99.90;;;6.92;100.00;101324.19;4977677;28;20043;-89
2021/11/24 09:40:40;;;;;;;;;;;8.70;99.90;;;6.95;100.00;101320.34;4974290;28;20054;-88
2021/11/24 09:43:11;;;;;;;90.15;25.55;;;8.70;99.90;;;6.98;100.00;101322.78;4983395;28;19926;-85
2021/11/24 09:45:43;;;;;;;81.75;24.73;;;8.70;99.90;;;6.98;100.00;101315.50;4968976;28;20078;-86
2021/11/24 09:48:10;;;;;;;84.35;25.02;;;8.70;99.90;;;7.00;100.00;101310.81;4987117;28;20046;-90
2021/11/24 09:50:39;;;;;;;78.38;24.52;;;8.70;99.90;;;7.07;100.00;101304.84;5000545;28;20050;-87
2021/11/24 09:53:08;;;;;;;77.32;23.90;;;8.70;99.90;;;7.07;100.00;101307.56;4971946;28;20058;-86
2021/11/24 09:55:37;;;;;;;76.30;26.23;;;8.80;99.90;;;7.10;100.00;101305.41;4982447;28;20042;-89
2021/11/24 09:58:08;;;;;;;70.70;25.38;;;8.80;99.90;;;7.15;100.00;101303.13;5004201;28;20511;-89
2021/11/24 10:00:38;;;;;;;83.03;25.70;;;8.80;99.90;;;7.20;100.00;101294.59;4998827;28;20571;-85
2021/11/24 10:03:06;;;;;;;61.60;22.85;;;8.80;99.90;;;7.24;100.00;101293.28;4985465;28;20046;-85
2021/11/24 10:05:36;;;;;;;69.55;23.30;;;8.70;99.90;;;7.21;100.00;101282.75;4983659;28;20542;-87
2021/11/24 10:08:03;;;;;;;69.53;24.20;;;8.60;99.90;;;7.20;100.00;101286.47;4984232;28;20046;-85